Latest Weather Observations for St Lawrence

IDQ60801

Issued at 11:35 am EST Friday 19 September 2014 (issued every 30 minutes, with the page automatically refreshed every 10 minutes)

About weather observations | Map of weather stations | Latest weather observations for QLD | Other Formats
Station Details ID: 033210 Name: ST LAWRENCE Lat: -22.35 Lon: 149.52 Height: 9.19 m
Data from the previous 72 hours. | See also: Recent months at St Lawrence
Date/Time
EST
Temp
°C
App
Temp
°C
Dew
Point
Rel
Hum
%
Delta-T
°C
Wind Press
QNH
hPa
Press
MSL
hPa
Rain
since 9 am
mm
Dir
 
Spd
km/h
Gust
km/h
Spd
kts
Gust
kts
19/11:30am 24.1 22.5 15.1 57 5.4 NNE 17 22 9 12 1018.9 1018.9 0.0
19/11:00am 23.9 22.4 15.4 59 5.1 NNE 17 20 9 11 1019.4 1019.4 0.0
19/10:30am 24.0 23.3 15.5 59 5.1 N 13 19 7 10 1019.9 1019.9 0.0
19/10:00am 23.3 22.7 15.6 62 4.6 NNE 13 19 7 10 1020.2 1020.2 0.0
19/09:30am 23.1 23.5 16.4 66 4.1 NNE 9 15 5 8 1020.6 1020.6 0.0
19/09:00am 21.4 21.9 14.1 63 4.2 S 4 7 2 4 1020.6 1020.6 0.0
19/08:30am 19.3 19.1 13.0 67 3.6 S 6 9 3 5 1020.6 1020.6 0.0
19/08:00am 17.1 16.4 12.0 72 2.8 SSW 7 9 4 5 1020.6 1020.6 0.0
19/07:30am 15.2 15.0 11.8 80 1.8 SSW 4 7 2 4 1020.3 1020.3 0.0
19/07:00am 13.6 13.3 11.3 86 1.2 WSW 4 6 2 3 1019.6 1019.6 0.0
19/06:30am 12.5 11.0 10.4 87 1.1 S 9 13 5 7 1019.3 1019.3 0.0
19/06:00am 10.6 10.5 9.4 92 0.6 CALM 0 0 0 0 1019.1 1019.1 0.0
19/05:30am 10.1 9.7 8.2 88 0.9 CALM 0 6 0 3 1019.0 1019.0 0.0
19/05:00am 10.5 10.3 8.9 90 0.8 CALM 0 0 0 0 1018.8 1018.8 0.0
19/04:30am 10.9 10.4 9.5 91 0.7 WSW 2 7 1 4 1018.3 1018.3 0.0
19/04:00am 10.8 10.6 9.1 89 0.8 CALM 0 0 0 0 1018.1 1018.1 0.0
19/03:30am 11.2 10.4 9.8 91 0.7 WSW 4 7 2 4 1018.0 1018.0 0.0
19/03:00am 12.0 11.3 9.9 87 1.1 SSW 4 6 2 3 1017.9 1017.9 0.0
19/02:30am 11.5 11.3 9.1 85 1.2 SW 0 0 0 0 1018.3 1018.3 0.0
19/02:00am 12.4 12.3 9.4 82 1.5 CALM 0 0 0 0 1018.3 1018.3 0.0
19/01:30am 13.8 12.8 10.4 80 1.8 SW 6 9 3 5 1018.5 1018.5 0.0
19/01:00am 13.6 12.7 10.6 82 1.6 SW 6 7 3 4 1018.6 1018.6 0.0
19/12:30am 13.2 12.9 10.0 81 1.6 SW 2 6 1 3 1018.7 1018.7 0.0
19/12:00am 13.5 13.5 9.9 79 1.8 SW 0 6 0 3 1018.9 1018.9 0.0
 
Date/Time
EST
Temp
°C
App
Temp
°C
Dew
Point
Rel
Hum
%
Delta-T
°C
Wind Press
QNH
hPa
Press
MSL
hPa
Rain
since 9 am
mm
Dir
 
Spd
km/h
Gust
km/h
Spd
kts
Gust
kts
18/11:30pm 13.7 13.7 9.7 77 2.1 CALM 0 0 0 0 1019.0 1019.0 0.0
18/11:00pm 14.3 14.5 10.5 78 2.0 CALM 0 0 0 0 1019.1 1019.1 0.0
18/10:30pm 14.8 15.0 10.6 76 2.2 CALM 0 0 0 0 1019.0 1019.0 0.0
18/10:00pm 15.4 15.6 10.4 72 2.6 CALM 0 0 0 0 1019.1 1019.1 0.0
18/09:30pm 16.2 15.4 10.9 71 2.8 SW 6 7 3 4 1019.0 1019.0 0.0
18/09:00pm 16.5 15.7 11.2 71 2.8 SW 6 7 3 4 1018.9 1018.9 0.0
18/08:30pm 16.8 16.5 11.3 70 3.0 WSW 4 7 2 4 1018.8 1018.8 0.0
18/08:00pm 17.8 18.3 11.6 67 3.4 CALM 0 0 0 0 1018.4 1018.4 0.0
18/07:30pm 18.7 19.2 11.5 63 3.9 CALM 0 0 0 0 1018.1 1018.1 0.0
18/07:00pm 19.2 19.4 10.7 58 4.6 CALM 0 0 0 0 1017.7 1017.7 0.0
18/06:30pm 21.4 20.3 12.0 55 5.3 N 9 11 5 6 1017.3 1017.3 0.0
18/06:00pm 22.5 20.7 12.2 52 5.8 NNE 13 17 7 9 1016.8 1016.8 0.0
18/05:30pm 23.4 21.2 12.1 49 6.4 NNE 15 20 8 11 1016.4 1016.4 0.0
18/05:00pm 24.6 21.4 11.2 43 7.5 NE 19 26 10 14 1015.9 1015.9 0.0
18/04:30pm 25.1 21.4 11.6 42 7.7 NNE 22 28 12 15 1015.3 1015.3 0.0
18/04:00pm 25.9 22.7 12.0 42 8.0 NNE 20 28 11 15 1015.3 1015.3 0.0
18/03:30pm 26.2 21.9 10.8 38 8.7 NNE 24 32 13 17 1015.2 1015.2 0.0
18/03:00pm 27.2 22.7 10.0 34 9.6 NNE 24 32 13 17 1015.0 1015.0 0.0
18/02:30pm 28.2 23.6 8.0 28 10.9 NNE 22 32 12 17 1015.1 1015.1 0.0
18/02:00pm 29.6 24.0 5.6 22 12.6 NE 24 33 13 18 1015.2 1015.2 0.0
18/01:30pm 28.7 23.8 4.9 22 12.3 NE 20 33 11 18 1015.5 1015.5 0.0
18/01:00pm 29.1 25.3 3.9 20 12.8 NE 13 22 7 12 1016.3 1016.3 0.0
18/12:30pm 28.5 24.7 1.9 18 13.0 SSE 11 20 6 11 1016.7 1016.7 0.0
18/12:00pm 28.1 23.9 1.6 18 12.8 S 13 24 7 13 1017.4 1017.4 0.0
18/11:30am 28.0 23.5 2.2 19 12.6 S 15 28 8 15 1017.9 1017.9 0.0
18/11:00am 27.7 22.8 2.0 19 12.5 SSE 17 30 9 16 1018.5 1018.5 0.0
18/10:30am 27.2 22.1 3.0 21 11.9 SSE 19 28 10 15 1018.8 1018.8 0.0
18/10:00am 26.4 20.6 2.3 21 11.7 S 22 39 12 21 1019.2 1019.2 0.0
18/09:30am 25.0 18.8 2.4 23 10.9 S 24 41 13 22 1019.4 1019.4 0.0
18/09:00am 24.0 18.6 4.4 28 9.7 S 22 37 12 20 1019.5 1019.5 0.0
18/08:30am 22.6 17.6 4.6 31 8.9 S 20 35 11 19 1019.5 1019.5 0.0
18/08:00am 20.7 18.0 7.3 42 6.8 S 11 19 6 10 1019.2 1019.2 0.0
18/07:30am 16.9 17.5 12.0 73 2.7 CALM 0 0 0 0 1019.0 1019.0 0.0
18/07:00am 13.5 14.3 12.6 94 0.5 CALM 0 0 0 0 1018.5 1018.5 0.0
18/06:30am 12.1 12.5 11.2 94 0.5 CALM 0 0 0 0 1018.0 1018.0 0.0
18/06:00am 12.2 11.4 11.1 93 0.6 SSW 6 7 3 4 1017.6 1017.6 0.0
18/05:30am 12.3 11.3 11.0 92 0.7 WSW 7 11 4 6 1017.2 1017.2 0.0
18/05:00am 15.1 14.4 14.3 95 0.5 S 11 19 6 10 1016.7 1016.7 0.0
18/04:30am 15.4 13.7 14.8 96 0.3 S 17 26 9 14 1016.1 1016.1 0.0
18/04:00am 13.0 12.3 12.1 94 0.5 S 7 11 4 6 1015.7 1015.7 0.0
18/03:30am 13.1 12.6 12.0 93 0.6 SSW 6 7 3 4 1015.3 1015.3 0.0
18/03:00am 13.0 13.6 11.9 93 0.6 CALM 0 0 0 0 1015.2 1015.2 0.0
18/02:30am 13.8 13.3 12.5 92 0.7 SW 7 9 4 5 1015.4 1015.4 0.0
18/02:00am 14.0 14.6 13.1 94 0.5 SW 2 6 1 3 1015.5 1015.5 0.0
18/01:30am 14.1 13.9 13.1 94 0.6 SW 6 7 3 4 1015.7 1015.7 0.0
18/01:00am 14.8 14.8 13.7 93 0.6 SSW 6 6 3 3 1015.9 1015.9 0.0
18/12:30am 15.2 15.6 13.7 91 0.8 SW 4 7 2 4 1015.9 1015.9 0.0
18/12:00am 15.9 15.9 14.3 90 0.9 SSW 7 9 4 5 1016.1 1016.1 0.0
 
Date/Time
EST
Temp
°C
App
Temp
°C
Dew
Point
Rel
Hum
%
Delta-T
°C
Wind Press
QNH
hPa
Press
MSL
hPa
Rain
since 9 am
mm
Dir
 
Spd
km/h
Gust
km/h
Spd
kts
Gust
kts
17/11:30pm 16.2 17.3 14.7 91 0.9 SW 2 7 1 4 1016.1 1016.1 0.0
17/11:00pm 16.0 17.3 14.2 89 1.0 CALM 0 0 0 0 1016.1 1016.1 0.0
17/10:30pm 16.9 18.1 14.9 88 1.2 SW 2 6 1 3 1015.9 1015.9 0.0
17/10:00pm 17.6 18.0 15.4 87 1.3 WSW 7 9 4 5 1015.9 1015.9 0.0
17/09:30pm 18.5 18.9 15.2 81 1.9 W 7 13 4 7 1015.9 1015.9 0.0
17/09:00pm 21.4 21.2 15.7 70 3.4 NE 11 15 6 8 1015.7 1015.7 0.0
17/08:30pm 21.2 21.9 17.0 77 2.6 ENE 9 15 5 8 1015.7 1015.7 0.0
17/08:00pm 21.5 22.8 17.5 78 2.5 NE 7 11 4 6 1015.3 1015.3 0.0
17/07:30pm 21.8 21.8 17.2 75 2.8 NNE 13 17 7 9 1014.9 1014.9 0.0
17/07:00pm 22.2 22.1 16.0 68 3.7 N 11 17 6 9 1014.4 1014.4 0.0
17/06:30pm 22.6 22.4 16.6 69 3.7 N 13 19 7 10 1014.1 1014.1 0.0
17/06:00pm 23.0 22.2 16.1 65 4.2 NNE 15 20 8 11 1013.7 1013.7 0.0
17/05:30pm 23.7 22.4 15.7 61 4.8 NNE 17 24 9 13 1013.5 1013.5 0.0
17/05:00pm 25.0 22.8 13.2 48 6.9 NNE 17 28 9 15 1013.4 1013.4 0.0
17/04:30pm 25.7 23.8 15.1 52 6.4 NE 19 24 10 13 1013.2 1013.2 0.0
17/04:00pm 25.9 24.5 17.0 58 5.5 NE 20 30 11 16 1013.0 1013.0 0.0
17/03:30pm 25.8 23.9 16.6 56 5.7 NE 22 28 12 15 1012.9 1012.9 0.0
17/03:00pm 26.6 24.4 15.0 49 7.0 NE 20 28 11 15 1013.1 1013.1 0.0
17/02:30pm 27.7 24.9 13.3 41 8.5 NNE 20 28 11 15 1013.1 1013.1 0.0
17/02:00pm 27.1 24.3 13.1 42 8.2 NNE 20 26 11 14 1013.4 1013.4 0.0
17/01:30pm 29.0 26.4 12.0 35 9.9 NE 17 24 9 13 1013.8 1013.8 0.0
17/01:00pm 28.0 24.8 11.1 35 9.6 ENE 19 24 10 13 1014.3 1014.3 0.0
17/12:30pm 27.9 25.4 12.3 38 9.1 ENE 17 22 9 12 1014.9 1014.9 0.0
17/12:00pm 26.9 24.2 14.6 46 7.4 NE 22 30 12 16 1015.3 1015.3 0.0
17/11:30am 29.1 26.1 7.6 26 11.6 NNE 13 19 7 10 1015.5 1015.5 0.0
17/11:00am 28.6 26.2 7.2 26 11.5 NW 9 17 5 9 1016.1 1016.1 0.0
17/10:30am 27.6 25.4 8.0 29 10.6 WSW 9 15 5 8 1016.6 1016.6 0.0
17/10:00am 26.3 24.2 8.3 32 9.7 W 9 17 5 9 1017.1 1017.1 0.0
17/09:30am 25.0 23.2 9.3 37 8.6 W 9 17 5 9 1017.4 1017.4 0.0
17/09:00am 23.1 22.8 13.3 54 5.7 SW 7 11 4 6 1017.7 1017.7 0.2
17/08:30am 21.4 22.2 15.9 71 3.3 S 6 9 3 5 1017.6 1017.6 0.2
17/08:00am 18.6 19.2 15.7 83 1.7 S 7 11 4 6 1017.6 1017.6 0.2
17/07:30am 16.4 15.8 14.6 89 1.0 S 11 17 6 9 1017.4 1017.4 0.2
17/07:00am 13.5 12.3 12.9 96 0.3 S 11 15 6 8 1017.2 1017.2 0.2
17/06:30am 11.7 11.9 10.6 93 0.6 CALM 0 7 0 4 1015.9 1015.9 0.2
17/06:00am 11.7 11.2 10.6 93 0.6 SSW 4 7 2 4 1015.7 1015.7 0.2
17/05:30am 11.8 11.7 10.7 93 0.6 SW 2 6 1 3 1015.5 1015.5 0.2
17/05:00am 11.7 11.8 10.3 91 0.7 CALM 0 0 0 0 1015.2 1015.2 0.2
17/04:30am 12.1 12.4 10.8 92 0.7 CALM 0 6 0 3 1015.0 1015.0 0.2
17/04:00am 12.7 13.1 11.3 91 0.7 CALM 0 6 0 3 1014.7 1014.7 0.2
17/03:30am 12.8 13.2 11.4 91 0.7 CALM 0 0 0 0 1014.6 1014.6 0.2
17/03:00am 13.1 13.2 11.5 90 0.8 WSW 2 6 1 3 1014.9 1014.9 0.2
17/02:30am 13.3 13.5 11.7 90 0.9 SSW 2 7 1 4 1015.0 1015.0 0.2
17/02:00am 13.5 12.9 11.7 89 1.0 SW 6 7 3 4 1015.2 1015.2 0.2
17/01:30am 13.8 13.5 12.7 93 0.6 SW 6 7 3 4 1015.5 1015.5 0.2
17/01:00am 14.2 14.0 12.9 92 0.7 SW 6 9 3 5 1015.6 1015.6 0.2
17/12:30am 14.4 15.3 12.8 90 0.9 CALM 0 0 0 0 1015.7 1015.7 0.2
17/12:00am 14.9 15.1 12.9 88 1.1 WSW 4 6 2 3 1016.1 1016.1 0.2
 
Date/Time
EST
Temp
°C
App
Temp
°C
Dew
Point
Rel
Hum
%
Delta-T
°C
Wind Press
QNH
hPa
Press
MSL
hPa
Rain
since 9 am
mm
Dir
 
Spd
km/h
Gust
km/h
Spd
kts
Gust
kts
16/11:30pm 15.4 15.3 13.8 90 0.9 W 7 11 4 6 1016.2 1016.2 0.2
16/11:00pm 16.3 17.2 14.0 86 1.3 N 2 6 1 3 1016.4 1016.4 0.2
16/10:30pm 17.6 18.8 15.0 85 1.5 WNW 2 6 1 3 1016.3 1016.3 0.2
16/10:00pm 18.6 19.3 16.0 85 1.5 NNE 7 9 4 5 1016.4 1016.4 0.2
16/09:30pm 19.3 20.2 16.5 84 1.7 N 7 9 4 5 1016.5 1016.5 0.2
16/09:00pm 19.7 20.6 16.7 83 1.8 N 7 9 4 5 1016.5 1016.5 0.2
16/08:30pm 20.0 21.0 16.4 80 2.2 N 6 9 3 5 1016.2 1016.2 0.2
16/08:00pm 20.7 20.9 16.7 78 2.4 NNE 11 15 6 8 1015.7 1015.7 0.2
16/07:30pm 21.0 21.0 17.2 79 2.3 NNE 13 19 7 10 1015.3 1015.3 0.2
16/07:00pm 21.2 20.7 16.8 76 2.7 NNE 15 20 8 11 1014.8 1014.8 0.2
16/06:30pm 21.6 20.9 16.3 72 3.2 NE 15 20 8 11 1014.4 1014.4 0.2
16/06:00pm 22.1 20.8 14.7 63 4.4 NNE 15 20 8 11 1014.0 1014.0 0.2
16/05:30pm 23.3 21.5 13.2 53 5.8 NNE 15 26 8 14 1013.7 1013.7 0.2
16/05:00pm 24.6 21.6 10.8 42 7.7 NNE 17 24 9 13 1013.7 1013.7 0.2
16/04:30pm 25.0 22.2 12.6 46 7.1 NE 19 22 10 12 1013.7 1013.7 0.2
16/04:00pm 26.5 24.3 12.2 41 8.2 NE 15 19 8 10 1013.8 1013.8 0.2
16/03:30pm 26.5 24.0 12.2 41 8.2 NNE 17 20 9 11 1013.8 1013.8 0.2
16/03:00pm 26.4 23.5 10.9 38 8.7 NNE 17 20 9 11 1013.8 1013.8 0.2
16/02:30pm 27.0 23.7 9.4 33 9.7 NE 17 22 9 12 1014.1 1014.1 0.2
16/02:00pm 27.5 23.4 6.3 26 11.1 NNE 17 24 9 13 1014.4 1014.4 0.2
16/01:30pm 27.0 22.8 5.9 26 11.0 NNE 17 22 9 12 1014.9 1014.9 0.2
16/01:00pm 26.2 22.8 9.1 34 9.3 NNE 17 22 9 12 1015.4 1015.4 0.2
16/12:30pm 26.8 24.3 9.6 34 9.5 NNE 13 20 7 11 1015.8 1015.8 0.2
16/12:00pm 25.8 23.3 9.6 36 8.9 NNE 13 19 7 10 1016.5 1016.5 0.2

Other Formats:

Comma delimited format used in spreadsheet applications
http://www.bom.gov.au/fwo/IDQ60801/IDQ60801.95369.axf

JavaScript Object Notation format (JSON) in row-major order
http://www.bom.gov.au/fwo/IDQ60801/IDQ60801.95369.json